createdAt,value
2017-07-06T09:04:21.474Z,1008.13
2017-07-06T09:05:21.471Z,1008.16
2017-07-06T09:06:21.466Z,1008.13
2017-07-06T09:07:21.461Z,1008.09
2017-07-06T09:08:21.457Z,1008.1
2017-07-06T09:09:21.505Z,1008.09
2017-07-06T09:10:21.550Z,1008.05
2017-07-06T09:11:21.444Z,1008.04
2017-07-06T09:12:21.441Z,1008.03
2017-07-06T09:13:21.436Z,1007.95
2017-07-06T09:14:21.432Z,1007.93
2017-07-06T09:15:21.429Z,1007.98
2017-07-06T09:16:21.427Z,1007.96
2017-07-06T09:17:21.422Z,1007.92
2017-07-06T09:18:21.418Z,1007.92
2017-07-06T09:19:21.415Z,1007.89
2017-07-06T09:20:21.414Z,1007.89
2017-07-06T09:21:21.409Z,1007.8
2017-07-06T09:22:21.405Z,1007.82
2017-07-06T09:23:21.402Z,1007.79
2017-07-06T09:24:21.399Z,1007.76
2017-07-06T09:25:21.395Z,1007.67
2017-07-06T09:26:21.393Z,1007.73
2017-07-06T09:27:21.392Z,1007.71
2017-07-06T09:28:21.387Z,1007.69
2017-07-06T09:29:21.384Z,1007.72
2017-07-06T09:30:21.381Z,1007.7
2017-07-06T09:31:21.378Z,1007.69
2017-07-06T09:32:21.376Z,1007.68
2017-07-06T09:33:21.372Z,1007.7
2017-07-06T09:34:21.641Z,1007.72
2017-07-06T09:35:21.370Z,1007.76
2017-07-06T09:36:21.364Z,1007.72
2017-07-06T09:37:21.361Z,1007.76
2017-07-06T09:38:21.358Z,1007.81
2017-07-06T09:39:21.356Z,1007.79
2017-07-06T09:40:21.353Z,1007.75
2017-07-06T09:41:21.351Z,1007.77
2017-07-06T09:42:21.350Z,1007.75
2017-07-06T09:43:21.349Z,1007.77
2017-07-06T09:44:21.343Z,1007.79
2017-07-06T09:45:21.342Z,1007.77
2017-07-06T09:46:21.342Z,1007.75
2017-07-06T09:47:21.338Z,1007.77
2017-07-06T09:48:21.336Z,1007.8
2017-07-06T09:49:21.334Z,1007.8
2017-07-06T09:50:21.334Z,1007.84
2017-07-06T09:51:21.581Z,1007.83
2017-07-06T09:52:21.330Z,1007.83
2017-07-06T09:53:21.329Z,1007.86
2017-07-06T09:54:21.328Z,1007.87
2017-07-06T09:55:21.326Z,1007.88
2017-07-06T09:56:21.325Z,1007.87
2017-07-06T09:57:21.324Z,1007.88
2017-07-06T09:58:21.322Z,1007.9
2017-07-06T09:59:21.321Z,1007.84
2017-07-06T10:00:21.323Z,1007.85
2017-07-06T10:01:21.319Z,1007.83
2017-07-06T10:02:21.317Z,1007.79
2017-07-06T10:03:21.560Z,1007.75
2017-07-06T10:04:21.315Z,1007.69
2017-07-06T10:05:21.315Z,1007.68
2017-07-06T10:06:21.312Z,1007.62
2017-07-06T10:07:21.312Z,1007.57
2017-07-06T10:08:21.312Z,1007.55
2017-07-06T10:09:21.309Z,1007.56
2017-07-06T10:10:21.308Z,1007.61
2017-07-06T10:11:21.309Z,1007.6
2017-07-06T10:12:21.435Z,1007.6
2017-07-06T10:13:21.358Z,1007.61
2017-07-06T10:14:21.305Z,1007.56
2017-07-06T10:15:21.305Z,1007.65
2017-07-06T10:16:21.304Z,1007.57
2017-07-06T10:17:21.304Z,1007.6
2017-07-06T10:18:21.300Z,1007.61
2017-07-06T10:19:21.299Z,1007.61
2017-07-06T10:20:21.296Z,1007.63
2017-07-06T10:21:21.295Z,1007.61
2017-07-06T10:22:21.294Z,1007.61
2017-07-06T10:23:21.293Z,1007.57
2017-07-06T10:24:21.290Z,1007.56
2017-07-06T10:25:21.290Z,1007.54
2017-07-06T10:26:21.288Z,1007.56
2017-07-06T10:27:21.287Z,1007.54
2017-07-06T10:28:21.286Z,1007.51
2017-07-06T10:29:21.284Z,1007.54
2017-07-06T10:30:21.287Z,1007.57
2017-07-06T10:31:21.281Z,1007.59
2017-07-06T10:32:21.279Z,1007.58
2017-07-06T10:33:21.279Z,1007.56
2017-07-06T10:34:21.275Z,1007.55
2017-07-06T10:35:21.272Z,1007.6
2017-07-06T10:36:21.269Z,1007.57
2017-07-06T10:37:21.266Z,1007.6
2017-07-06T10:38:21.384Z,1007.59
2017-07-06T10:39:21.265Z,1007.61
2017-07-06T10:40:21.257Z,1007.57
2017-07-06T10:41:21.254Z,1007.6
2017-07-06T10:42:21.250Z,1007.62
2017-07-06T10:43:21.247Z,1007.58
2017-07-06T10:44:21.243Z,1007.57
2017-07-06T10:45:21.240Z,1007.61
2017-07-06T10:46:21.252Z,1007.52
2017-07-06T10:47:21.231Z,1007.56
2017-07-06T10:48:21.227Z,1007.55
2017-07-06T10:49:21.223Z,1007.57
2017-07-06T10:50:21.220Z,1007.58
2017-07-06T10:51:21.218Z,1007.57
2017-07-06T10:52:21.210Z,1007.55
2017-07-06T10:53:21.205Z,1007.55
2017-07-06T10:54:21.201Z,1007.52
2017-07-06T10:55:21.196Z,1007.51
2017-07-06T10:56:21.192Z,1007.54
2017-07-06T10:57:21.186Z,1007.46
2017-07-06T10:58:21.182Z,1007.47
2017-07-06T10:59:21.177Z,1007.49
2017-07-06T11:00:21.172Z,1007.53
2017-07-06T11:01:21.167Z,1007.49
2017-07-06T11:02:21.303Z,1007.46
2017-07-06T11:03:21.307Z,1007.51
2017-07-06T11:04:21.261Z,1007.54
2017-07-06T11:05:21.165Z,1007.56
2017-07-06T11:06:21.140Z,1007.53
2017-07-06T11:07:21.137Z,1007.53
2017-07-06T11:08:21.131Z,1007.55
2017-07-06T11:09:21.127Z,1007.6
2017-07-06T11:10:21.398Z,1007.51
2017-07-06T11:11:21.125Z,1007.54
2017-07-06T11:12:21.176Z,1007.5
2017-07-06T11:13:21.105Z,1007.49
2017-07-06T11:14:21.151Z,1007.44
2017-07-06T11:15:21.093Z,1007.4
2017-07-06T11:16:21.088Z,1007.42
2017-07-06T11:17:21.083Z,1007.38
2017-07-06T11:18:21.078Z,1007.38
2017-07-06T11:19:21.073Z,1007.38
2017-07-06T11:20:21.067Z,1007.39
2017-07-06T11:21:21.062Z,1007.39
2017-07-06T11:22:21.056Z,1007.38
2017-07-06T11:23:21.054Z,1007.41
2017-07-06T11:24:21.194Z,1007.43
2017-07-06T11:25:21.042Z,1007.42
2017-07-06T11:26:21.038Z,1007.4
2017-07-06T11:27:21.034Z,1007.52
2017-07-06T11:28:21.030Z,1007.45
2017-07-06T11:29:21.026Z,1007.48
2017-07-06T11:30:21.022Z,1007.48
2017-07-06T11:31:21.018Z,1007.46
2017-07-06T11:32:21.019Z,1007.43
2017-07-06T11:33:21.013Z,1007.44
2017-07-06T11:34:21.011Z,1007.49
2017-07-06T11:35:21.007Z,1007.5
2017-07-06T11:36:21.006Z,1007.47
2017-07-06T11:37:21.003Z,1007.45
2017-07-06T11:38:21.001Z,1007.38
2017-07-06T11:39:21.000Z,1007.37
2017-07-06T11:40:20.999Z,1007.31
2017-07-06T11:41:20.997Z,1007.3
2017-07-06T11:42:20.997Z,1007.23
2017-07-06T11:43:20.996Z,1007.29
2017-07-06T11:44:20.995Z,1007.28
2017-07-06T11:45:20.994Z,1007.34
2017-07-06T11:46:20.993Z,1007.29
2017-07-06T11:47:20.992Z,1007.24
2017-07-06T11:48:20.989Z,1007.29
2017-07-06T11:49:20.988Z,1007.27
2017-07-06T11:50:20.989Z,1007.3
2017-07-06T11:51:20.985Z,1007.25
2017-07-06T11:52:20.983Z,1007.27
2017-07-06T11:53:20.983Z,1007.27
2017-07-06T11:54:20.981Z,1007.22
2017-07-06T11:55:20.979Z,1007.23
2017-07-06T11:56:20.978Z,1007.2
2017-07-06T11:57:21.401Z,1007.18
2017-07-06T11:58:20.978Z,1007.15
2017-07-06T11:59:20.975Z,1007.21
2017-07-06T12:00:20.975Z,1007.18
2017-07-06T12:01:20.975Z,1007.18
2017-07-06T12:02:20.979Z,1007.17
2017-07-06T12:03:20.975Z,1007.2
2017-07-06T12:04:20.975Z,1007.19
2017-07-06T12:05:21.078Z,1007.21
2017-07-06T12:06:20.976Z,1007.21
2017-07-06T12:07:20.977Z,1007.26
2017-07-06T12:08:20.976Z,1007.22
2017-07-06T12:09:21.078Z,1007.27
2017-07-06T12:10:21.074Z,1007.28
2017-07-06T12:11:20.975Z,1007.2
2017-07-06T12:12:20.974Z,1007.28
2017-07-06T12:13:21.105Z,1007.28
2017-07-06T12:14:20.973Z,1007.26
2017-07-06T12:15:20.973Z,1007.27
2017-07-06T12:16:20.972Z,1007.24
2017-07-06T12:17:20.970Z,1007.27
2017-07-06T12:18:20.968Z,1007.2
2017-07-06T12:19:20.966Z,1007.2
2017-07-06T12:20:20.965Z,1007.17
2017-07-06T12:21:20.962Z,1007.15
2017-07-06T12:22:20.960Z,1007.16
2017-07-06T12:23:20.958Z,1007.07
2017-07-06T12:24:20.955Z,1007.08
2017-07-06T12:25:20.952Z,1007.04
2017-07-06T12:26:20.952Z,1006.99
2017-07-06T12:27:20.949Z,1007
2017-07-06T12:28:20.946Z,1007.01
2017-07-06T12:29:20.943Z,1007.04
2017-07-06T12:30:20.941Z,1007.05
2017-07-06T12:31:20.938Z,1007.03
2017-07-06T12:32:20.934Z,1007.09
2017-07-06T12:33:20.931Z,1007.09
2017-07-06T12:34:20.928Z,1007.02
2017-07-06T12:35:20.924Z,1006.99
2017-07-06T12:36:20.921Z,1007.02
2017-07-06T12:37:20.917Z,1006.95
2017-07-06T12:38:20.913Z,1006.95
2017-07-06T12:39:20.908Z,1006.94
2017-07-06T12:40:20.905Z,1006.95
2017-07-06T12:41:20.899Z,1006.95
2017-07-06T12:42:20.894Z,1006.9
2017-07-06T12:43:20.888Z,1006.86
2017-07-06T12:44:20.883Z,1006.92
2017-07-06T12:45:20.877Z,1006.86
2017-07-06T12:46:20.871Z,1006.86
2017-07-06T12:47:20.865Z,1006.87
2017-07-06T12:48:20.859Z,1006.9
2017-07-06T12:49:20.852Z,1006.94
2017-07-06T12:50:20.844Z,1006.87
2017-07-06T12:51:20.838Z,1006.95
2017-07-06T12:52:20.830Z,1006.91
2017-07-06T12:53:20.823Z,1006.9
2017-07-06T12:54:20.815Z,1006.86
2017-07-06T12:55:20.807Z,1006.9
2017-07-06T12:56:20.800Z,1006.93
2017-07-06T12:57:20.790Z,1007.01
2017-07-06T12:58:20.783Z,1006.98
2017-07-06T12:59:20.774Z,1006.97
2017-07-06T13:00:20.766Z,1006.97
2017-07-06T13:01:20.758Z,1006.99
2017-07-06T13:02:20.749Z,1006.94
2017-07-06T13:03:20.747Z,1006.92
2017-07-06T13:04:20.732Z,1006.9
2017-07-06T13:05:20.722Z,1006.9
2017-07-06T13:06:20.714Z,1006.91
2017-07-06T13:07:20.710Z,1006.96
2017-07-06T13:08:20.695Z,1006.91
2017-07-06T13:09:20.692Z,1006.88
2017-07-06T13:10:20.678Z,1006.88
2017-07-06T13:11:20.668Z,1006.89
2017-07-06T13:12:20.659Z,1006.86
2017-07-06T13:13:20.650Z,1006.8
2017-07-06T13:14:20.642Z,1006.79
2017-07-06T13:15:20.633Z,1006.76
2017-07-06T13:16:20.624Z,1006.74
2017-07-06T13:17:20.614Z,1006.71
2017-07-06T13:18:20.605Z,1006.71
2017-07-06T13:19:20.595Z,1006.69
2017-07-06T13:20:20.587Z,1006.65
2017-07-06T13:21:20.577Z,1006.63
2017-07-06T13:22:20.569Z,1006.61
2017-07-06T13:23:20.560Z,1006.63
2017-07-06T13:24:20.550Z,1006.62
2017-07-06T13:25:20.543Z,1006.57
2017-07-06T13:26:20.535Z,1006.52
2017-07-06T13:27:20.526Z,1006.52
2017-07-06T13:28:20.518Z,1006.55
2017-07-06T13:29:20.512Z,1006.48
2017-07-06T13:30:20.505Z,1006.44
2017-07-06T13:31:20.500Z,1006.49
2017-07-06T13:32:20.495Z,1006.48
2017-07-06T13:33:20.491Z,1006.46
2017-07-06T13:34:20.485Z,1006.42
2017-07-06T13:35:20.482Z,1006.44
2017-07-06T13:36:20.479Z,1006.37
2017-07-06T13:37:20.477Z,1006.38
2017-07-06T13:38:20.472Z,1006.32
2017-07-06T13:39:20.471Z,1006.33
2017-07-06T13:40:20.468Z,1006.32
2017-07-06T13:41:20.465Z,1006.31
2017-07-06T13:42:20.464Z,1006.32
2017-07-06T13:43:20.463Z,1006.33
2017-07-06T13:44:20.462Z,1006.36
2017-07-06T13:45:20.460Z,1006.39
2017-07-06T13:46:20.458Z,1006.34
2017-07-06T13:47:20.457Z,1006.33
2017-07-06T13:48:20.455Z,1006.35
2017-07-06T13:49:20.453Z,1006.35
2017-07-06T13:50:20.452Z,1006.35
2017-07-06T13:51:20.448Z,1006.34
2017-07-06T13:52:20.443Z,1006.34
2017-07-06T13:53:20.441Z,1006.34
2017-07-06T13:54:20.437Z,1006.35
2017-07-06T13:55:20.433Z,1006.32
2017-07-06T13:56:20.428Z,1006.32
2017-07-06T13:57:20.423Z,1006.22
2017-07-06T13:58:20.419Z,1006.27
2017-07-06T13:59:20.414Z,1006.26
2017-07-06T14:00:20.410Z,1006.25
2017-07-06T14:01:20.404Z,1006.28
2017-07-06T14:02:20.399Z,1006.3
2017-07-06T14:03:20.391Z,1006.27
2017-07-06T14:04:20.386Z,1006.25
2017-07-06T14:05:20.380Z,1006.21
2017-07-06T14:06:20.375Z,1006.2
2017-07-06T14:07:20.368Z,1006.21
2017-07-06T14:08:20.361Z,1006.22
2017-07-06T14:09:20.357Z,1006.24
2017-07-06T14:10:20.347Z,1006.23
2017-07-06T14:11:20.402Z,1006.24
2017-07-06T14:12:20.440Z,1006.21
2017-07-06T14:13:20.328Z,1006.15
2017-07-06T14:14:20.321Z,1006.15
2017-07-06T14:15:20.314Z,1006.16
2017-07-06T14:16:20.309Z,1006.2
2017-07-06T14:17:20.304Z,1006.18
2017-07-06T14:18:20.296Z,1006.21
2017-07-06T14:19:20.286Z,1006.2
2017-07-06T14:20:20.280Z,1006.18
2017-07-06T14:21:20.272Z,1006.15
2017-07-06T14:22:20.265Z,1006.17
2017-07-06T14:23:20.258Z,1006.2
2017-07-06T14:24:20.251Z,1006.16
2017-07-06T14:25:20.247Z,1006.12
2017-07-06T14:26:20.236Z,1006.14
2017-07-06T14:27:20.229Z,1006.13
2017-07-06T14:28:20.221Z,1006.1
2017-07-06T14:29:20.217Z,1006.06
2017-07-06T14:30:20.206Z,1006.04
2017-07-06T14:31:20.198Z,1006.04
2017-07-06T14:32:20.190Z,1006.01
2017-07-06T14:33:20.187Z,1005.97
2017-07-06T14:34:20.175Z,1005.95
2017-07-06T14:35:20.171Z,1005.97
2017-07-06T14:36:20.158Z,1005.94
2017-07-06T14:37:20.153Z,1005.93
2017-07-06T14:38:20.144Z,1005.95
2017-07-06T14:39:20.135Z,1005.94
2017-07-06T14:40:20.405Z,1005.94
2017-07-06T14:41:20.118Z,1005.99
2017-07-06T14:42:20.111Z,1005.96
2017-07-06T14:43:20.101Z,1005.97
2017-07-06T14:44:20.093Z,1005.98
2017-07-06T14:45:20.084Z,1006
2017-07-06T14:46:20.080Z,1005.94
2017-07-06T14:47:20.067Z,1005.98
2017-07-06T14:48:20.059Z,1005.95
2017-07-06T14:49:20.051Z,1005.93
2017-07-06T14:50:20.042Z,1005.92
2017-07-06T14:51:20.035Z,1005.91
2017-07-06T14:52:20.024Z,1005.89
2017-07-06T14:53:20.021Z,1005.84
2017-07-06T14:54:20.008Z,1005.84
2017-07-06T14:55:19.998Z,1005.82
2017-07-06T14:56:19.991Z,1005.82
2017-07-06T14:57:19.981Z,1005.85
2017-07-06T14:58:19.971Z,1005.83
2017-07-06T14:59:19.964Z,1005.84
2017-07-06T15:00:19.955Z,1005.81
2017-07-06T15:01:19.946Z,1005.83
2017-07-06T15:02:19.937Z,1005.8
2017-07-06T15:03:19.927Z,1005.8
2017-07-06T15:04:19.920Z,1005.79
2017-07-06T15:05:19.910Z,1005.82
2017-07-06T15:06:19.902Z,1005.83
2017-07-06T15:07:19.891Z,1005.84
2017-07-06T15:08:19.882Z,1005.83
2017-07-06T15:09:19.872Z,1005.85
2017-07-06T15:10:20.155Z,1005.87
2017-07-06T15:11:19.854Z,1005.88
2017-07-06T15:12:19.846Z,1005.83
2017-07-06T15:13:19.835Z,1005.78
2017-07-06T15:14:19.985Z,1005.72
2017-07-06T15:15:20.038Z,1005.7
2017-07-06T15:16:19.805Z,1005.65
2017-07-06T15:17:19.798Z,1005.64
2017-07-06T15:18:19.786Z,1005.58
2017-07-06T15:19:19.778Z,1005.53
2017-07-06T15:20:19.771Z,1005.5
2017-07-06T15:21:19.757Z,1005.46
2017-07-06T15:22:19.746Z,1005.42
2017-07-06T15:23:19.736Z,1005.43
2017-07-06T15:24:19.726Z,1005.43
2017-07-06T15:25:19.717Z,1005.43
2017-07-06T15:26:19.706Z,1005.44
2017-07-06T15:27:19.696Z,1005.45
2017-07-06T15:28:19.686Z,1005.46
2017-07-06T15:29:19.674Z,1005.47
2017-07-06T15:30:19.664Z,1005.51
2017-07-06T15:31:19.652Z,1005.51
2017-07-06T15:32:19.643Z,1005.5
2017-07-06T15:33:19.630Z,1005.47
2017-07-06T15:34:19.618Z,1005.49
2017-07-06T15:35:19.608Z,1005.53
2017-07-06T15:36:19.596Z,1005.49
2017-07-06T15:37:19.587Z,1005.48
2017-07-06T15:38:19.573Z,1005.45
2017-07-06T15:39:19.563Z,1005.44
2017-07-06T15:40:19.551Z,1005.45
2017-07-06T15:41:19.883Z,1005.4
2017-07-06T15:42:19.528Z,1005.36
2017-07-06T15:43:19.516Z,1005.37
2017-07-06T15:44:19.505Z,1005.36
2017-07-06T15:45:19.493Z,1005.29
2017-07-06T15:46:19.481Z,1005.3
2017-07-06T15:47:19.470Z,1005.28
2017-07-06T15:48:19.458Z,1005.25
2017-07-06T15:49:19.446Z,1005.25
2017-07-06T15:50:19.434Z,1005.19
2017-07-06T15:51:19.423Z,1005.17
2017-07-06T15:52:19.412Z,1005.15
2017-07-06T15:53:19.398Z,1005.09
2017-07-06T15:54:19.388Z,1005.12
2017-07-06T15:55:19.375Z,1005.12
2017-07-06T15:56:19.362Z,1005.13
2017-07-06T15:57:19.367Z,1005.14
2017-07-06T15:58:19.339Z,1005.2
2017-07-06T15:59:19.328Z,1005.24
2017-07-06T16:00:19.314Z,1005.24
2017-07-06T16:01:19.304Z,1005.22
2017-07-06T16:02:19.574Z,1005.23
2017-07-06T16:03:19.278Z,1005.24
2017-07-06T16:04:19.265Z,1005.21
2017-07-06T16:05:19.352Z,1005.28
2017-07-06T16:06:19.241Z,1005.26
2017-07-06T16:07:19.229Z,1005.25
2017-07-06T16:08:19.319Z,1005.27
2017-07-06T16:09:19.208Z,1005.29
2017-07-06T16:10:19.193Z,1005.31
2017-07-06T16:11:19.180Z,1005.35
2017-07-06T16:12:19.169Z,1005.34
2017-07-06T16:13:19.208Z,1005.31
2017-07-06T16:14:19.150Z,1005.31
2017-07-06T16:15:19.134Z,1005.29
2017-07-06T16:16:19.124Z,1005.25
2017-07-06T16:17:19.114Z,1005.2
2017-07-06T16:18:19.102Z,1005.18
2017-07-06T16:19:19.092Z,1005.15
2017-07-06T16:20:19.083Z,1005.07
2017-07-06T16:21:19.072Z,1005.01
2017-07-06T16:22:19.061Z,1004.98
2017-07-06T16:23:19.053Z,1004.92
2017-07-06T16:24:19.044Z,1004.88
2017-07-06T16:25:19.038Z,1004.84
2017-07-06T16:26:19.026Z,1004.83
2017-07-06T16:27:19.019Z,1004.78
2017-07-06T16:28:19.311Z,1004.83
2017-07-06T16:29:19.004Z,1004.86
2017-07-06T16:30:18.997Z,1004.86
2017-07-06T16:31:18.990Z,1004.87
2017-07-06T16:32:18.982Z,1004.89
2017-07-06T16:33:18.977Z,1004.93
2017-07-06T16:34:18.969Z,1004.93
2017-07-06T16:35:18.963Z,1004.92
2017-07-06T16:36:18.958Z,1004.93
2017-07-06T16:37:18.950Z,1004.95
2017-07-06T16:38:18.945Z,1004.94
2017-07-06T16:39:18.941Z,1004.98
2017-07-06T16:40:18.934Z,1005
2017-07-06T16:41:18.929Z,1004.98
2017-07-06T16:42:18.924Z,1005
2017-07-06T16:43:18.920Z,1004.99
2017-07-06T16:44:18.914Z,1005.02
2017-07-06T16:45:18.910Z,1005.02
2017-07-06T16:46:18.906Z,1004.96
2017-07-06T16:47:18.902Z,1004.93
2017-07-06T16:48:18.896Z,1004.89
2017-07-06T16:49:18.891Z,1004.89
2017-07-06T16:50:18.887Z,1004.87
2017-07-06T16:51:18.881Z,1004.9
2017-07-06T16:52:18.876Z,1004.86
2017-07-06T16:53:18.870Z,1004.93
2017-07-06T16:54:18.865Z,1004.92
2017-07-06T16:55:18.858Z,1004.97
2017-07-06T16:56:18.852Z,1005
2017-07-06T16:57:18.845Z,1005.02
2017-07-06T16:58:18.839Z,1005.01
2017-07-06T16:59:18.832Z,1004.97
2017-07-06T17:00:18.825Z,1004.95
2017-07-06T17:01:18.818Z,1004.97
2017-07-06T17:02:18.811Z,1004.89
2017-07-06T17:03:18.802Z,1004.95
2017-07-06T17:04:18.795Z,1004.92
2017-07-06T17:05:18.789Z,1004.91
2017-07-06T17:06:18.780Z,1004.99
2017-07-06T17:07:18.772Z,1004.99
2017-07-06T17:08:18.766Z,1004.98
2017-07-06T17:09:18.762Z,1005
2017-07-06T17:10:18.751Z,1004.99
2017-07-06T17:11:18.743Z,1005
2017-07-06T17:12:18.739Z,1005.01
2017-07-06T17:13:18.729Z,1005.05
2017-07-06T17:14:18.723Z,1005.09
2017-07-06T17:15:18.716Z,1005.07
2017-07-06T17:16:18.709Z,1005.06
2017-07-06T17:17:18.701Z,1005.1
2017-07-06T17:18:18.694Z,1005.04
2017-07-06T17:19:18.686Z,1005.03
2017-07-06T17:20:18.679Z,1005.08
2017-07-06T17:21:18.671Z,1005.08
2017-07-06T17:22:18.663Z,1005.05
2017-07-06T17:23:18.655Z,1005
2017-07-06T17:24:18.646Z,1004.99
2017-07-06T17:25:18.638Z,1004.99
2017-07-06T17:26:18.629Z,1005.03
2017-07-06T17:27:18.621Z,1005.02
2017-07-06T17:28:18.611Z,1005.03
2017-07-06T17:29:18.602Z,1005.01
2017-07-06T17:30:18.593Z,1005.05
2017-07-06T17:31:18.583Z,1005.02
2017-07-06T17:32:18.573Z,1005.04
2017-07-06T17:33:18.567Z,1005.05
2017-07-06T17:34:18.606Z,1005.02
2017-07-06T17:35:18.544Z,1005.06
2017-07-06T17:36:18.534Z,1005.07
2017-07-06T17:37:18.525Z,1005.02
2017-07-06T17:38:18.514Z,1005.01
2017-07-06T17:39:18.503Z,1005.01
2017-07-06T17:40:18.493Z,1004.95
2017-07-06T17:41:18.482Z,1004.88
2017-07-06T17:42:18.472Z,1004.84
2017-07-06T17:43:18.460Z,1004.79
2017-07-06T17:44:18.450Z,1004.78
2017-07-06T17:45:18.439Z,1004.71
2017-07-06T17:46:18.429Z,1004.71
2017-07-06T17:47:18.417Z,1004.68
2017-07-06T17:48:18.546Z,1004.7
2017-07-06T17:49:18.396Z,1004.72
2017-07-06T17:50:18.385Z,1004.75
2017-07-06T17:51:18.374Z,1004.74
2017-07-06T17:52:18.363Z,1004.77
2017-07-06T17:53:18.363Z,1004.77
2017-07-06T17:54:18.342Z,1004.76
2017-07-06T17:55:18.330Z,1004.78
2017-07-06T17:56:18.319Z,1004.73
2017-07-06T17:57:18.307Z,1004.71
2017-07-06T17:58:18.297Z,1004.64
2017-07-06T17:59:18.287Z,1004.58
2017-07-06T18:00:18.275Z,1004.57
2017-07-06T18:01:18.263Z,1004.58
2017-07-06T18:02:18.255Z,1004.63
2017-07-06T18:03:18.241Z,1004.67
2017-07-06T18:04:18.230Z,1004.77
2017-07-06T18:05:18.219Z,1004.81
2017-07-06T18:06:18.208Z,1004.86
2017-07-06T18:07:18.197Z,1004.88
2017-07-06T18:08:18.186Z,1004.91
2017-07-06T18:09:18.177Z,1004.89
2017-07-06T18:10:18.167Z,1004.94
2017-07-06T18:11:18.153Z,1004.89
2017-07-06T18:12:18.176Z,1004.88
2017-07-06T18:13:18.222Z,1004.9
2017-07-06T18:14:18.119Z,1004.9
2017-07-06T18:15:18.108Z,1004.89
2017-07-06T18:16:18.098Z,1004.88
2017-07-06T18:17:18.087Z,1004.87
2017-07-06T18:18:18.081Z,1004.93
2017-07-06T18:19:18.068Z,1004.94
2017-07-06T18:20:18.058Z,1005.04
2017-07-06T18:21:18.041Z,1005.05
2017-07-06T18:22:18.030Z,1005.04
2017-07-06T18:23:18.019Z,1005.01
2017-07-06T18:24:18.008Z,1005.01
2017-07-06T18:25:17.999Z,1004.95
2017-07-06T18:26:17.984Z,1004.94
2017-07-06T18:27:17.973Z,1004.88
2017-07-06T18:28:17.963Z,1004.82
2017-07-06T18:29:17.951Z,1004.82
2017-07-06T18:30:17.938Z,1004.78
2017-07-06T18:31:17.927Z,1004.77
2017-07-06T18:32:17.915Z,1004.79
2017-07-06T18:33:17.904Z,1004.85
2017-07-06T18:34:17.894Z,1004.88
2017-07-06T18:35:17.881Z,1004.91
2017-07-06T18:36:17.869Z,1004.9
2017-07-06T18:37:17.857Z,1004.87
2017-07-06T18:38:17.845Z,1004.92
2017-07-06T18:39:18.061Z,1004.97
2017-07-06T18:40:17.916Z,1004.98
2017-07-06T18:41:17.868Z,1005
2017-07-06T18:42:17.795Z,1005.03
2017-07-06T18:43:17.784Z,1005.04
2017-07-06T18:44:17.771Z,1005.03
2017-07-06T18:45:17.758Z,1005.06
2017-07-06T18:46:17.746Z,1005.07
2017-07-06T18:47:17.733Z,1005.04
2017-07-06T18:48:17.720Z,1005.01
2017-07-06T18:49:17.708Z,1004.99
2017-07-06T18:50:17.699Z,1004.94
2017-07-06T18:51:17.682Z,1004.92
2017-07-06T18:52:17.668Z,1004.92
2017-07-06T18:53:17.656Z,1004.96
2017-07-06T18:54:17.643Z,1005
2017-07-06T18:55:17.630Z,1005.02
2017-07-06T18:56:17.616Z,1005.03
2017-07-06T18:57:17.604Z,1005
2017-07-06T18:58:17.590Z,1005.02
2017-07-06T18:59:17.577Z,1005.01
2017-07-06T19:00:17.562Z,1005.04
2017-07-06T19:01:17.550Z,1005.07
2017-07-06T19:02:17.536Z,1005.03
2017-07-06T19:03:17.522Z,1005.09
2017-07-06T19:04:17.511Z,1005.1
2017-07-06T19:05:17.496Z,1005.09
2017-07-06T19:06:17.481Z,1005.05
2017-07-06T19:07:17.467Z,1005.03
2017-07-06T19:08:17.454Z,1004.98
2017-07-06T19:09:17.442Z,1004.99
2017-07-06T19:10:17.525Z,1005.01
2017-07-06T19:11:17.662Z,1005.04
2017-07-06T19:12:17.399Z,1005.08
2017-07-06T19:13:17.386Z,1005.09
2017-07-06T19:14:17.371Z,1005.09
2017-07-06T19:15:17.356Z,1005.06
2017-07-06T19:16:17.343Z,1005.06
2017-07-06T19:17:17.328Z,1004.98
2017-07-06T19:18:17.314Z,1004.97
2017-07-06T19:19:17.299Z,1004.91
2017-07-06T19:20:17.287Z,1004.89
2017-07-06T19:21:17.271Z,1004.93
2017-07-06T19:22:17.257Z,1004.91
2017-07-06T19:23:17.245Z,1004.89
2017-07-06T19:24:17.229Z,1004.83
2017-07-06T19:25:17.214Z,1004.88
2017-07-06T19:26:17.199Z,1004.83
2017-07-06T19:27:17.185Z,1004.83
2017-07-06T19:28:17.170Z,1004.85
2017-07-06T19:29:17.160Z,1004.84
2017-07-06T19:30:17.142Z,1004.82
2017-07-06T19:31:17.127Z,1004.78
2017-07-06T19:32:17.111Z,1004.71
2017-07-06T19:33:17.098Z,1004.66
2017-07-06T19:34:17.083Z,1004.59
2017-07-06T19:35:17.069Z,1004.56
2017-07-06T19:36:17.053Z,1004.5
2017-07-06T19:37:17.039Z,1004.51
2017-07-06T19:38:17.024Z,1004.51
2017-07-06T19:39:17.011Z,1004.56
2017-07-06T19:40:16.996Z,1004.53
2017-07-06T19:41:16.981Z,1004.58
2017-07-06T19:42:16.966Z,1004.58
2017-07-06T19:43:16.950Z,1004.6
2017-07-06T19:44:16.936Z,1004.52
2017-07-06T19:45:16.921Z,1004.57
2017-07-06T19:46:16.906Z,1004.46
2017-07-06T19:47:16.891Z,1004.41
2017-07-06T19:48:16.878Z,1004.37
2017-07-06T19:49:16.862Z,1004.33
2017-07-06T19:50:16.848Z,1004.33
2017-07-06T19:51:16.832Z,1004.3
2017-07-06T19:52:16.817Z,1004.27
2017-07-06T19:53:16.803Z,1004.25
2017-07-06T19:54:16.787Z,1004.23
2017-07-06T19:55:16.772Z,1004.25
2017-07-06T19:56:16.758Z,1004.23
2017-07-06T19:57:16.802Z,1004.23
2017-07-06T19:58:16.728Z,1004.23
2017-07-06T19:59:16.713Z,1004.25
2017-07-06T20:00:16.698Z,1004.19
2017-07-06T20:01:16.682Z,1004.12
2017-07-06T20:02:16.841Z,1004.09
2017-07-06T20:03:16.652Z,1004.04
2017-07-06T20:04:16.638Z,1004.06
2017-07-06T20:05:16.622Z,1004.05
2017-07-06T20:06:16.607Z,1004.06
2017-07-06T20:07:16.592Z,1004.07
2017-07-06T20:08:16.577Z,1004.06
2017-07-06T20:09:16.826Z,1004.1
2017-07-06T20:10:16.547Z,1004.08
2017-07-06T20:11:16.533Z,1004.1
2017-07-06T20:12:16.517Z,1004.13
2017-07-06T20:13:16.502Z,1004.15
2017-07-06T20:14:16.487Z,1004.16
2017-07-06T20:15:16.472Z,1004.22
2017-07-06T20:16:16.455Z,1004.25
2017-07-06T20:17:16.440Z,1004.26
2017-07-06T20:18:16.425Z,1004.27
2017-07-06T20:19:16.410Z,1004.29
2017-07-06T20:20:16.393Z,1004.33
2017-07-06T20:21:16.379Z,1004.26
2017-07-06T20:22:16.363Z,1004.26
2017-07-06T20:23:16.347Z,1004.3
2017-07-06T20:24:16.332Z,1004.26
2017-07-06T20:25:16.318Z,1004.25
2017-07-06T20:26:16.302Z,1004.21
2017-07-06T20:27:16.286Z,1004.17
2017-07-06T20:28:16.270Z,1004.11
2017-07-06T20:29:16.261Z,1004.08
2017-07-06T20:30:16.239Z,1004.08
2017-07-06T20:31:16.223Z,1004.07
2017-07-06T20:32:16.209Z,1004
2017-07-06T20:33:16.193Z,1004.07
2017-07-06T20:34:16.177Z,1004.02
2017-07-06T20:35:16.163Z,1004.02
2017-07-06T20:36:16.147Z,1004.04
2017-07-06T20:37:16.131Z,1004.04
2017-07-06T20:38:16.116Z,1004.04
2017-07-06T20:39:16.099Z,1004.07
2017-07-06T20:40:16.085Z,1004.1
2017-07-06T20:41:16.068Z,1004.12
2017-07-06T20:42:16.052Z,1004.1
2017-07-06T20:43:16.037Z,1004.2
2017-07-06T20:44:16.021Z,1004.26
2017-07-06T20:45:16.005Z,1004.33
2017-07-06T20:46:15.990Z,1004.38
2017-07-06T20:47:15.974Z,1004.4
2017-07-06T20:48:15.958Z,1004.46
2017-07-06T20:49:15.942Z,1004.5
2017-07-06T20:50:15.928Z,1004.52
2017-07-06T20:51:15.911Z,1004.5
2017-07-06T20:52:15.895Z,1004.54
2017-07-06T20:53:15.879Z,1004.56
2017-07-06T20:54:15.864Z,1004.58
2017-07-06T20:55:15.849Z,1004.61
2017-07-06T20:56:15.833Z,1004.53
2017-07-06T20:57:15.817Z,1004.51
2017-07-06T20:58:15.801Z,1004.48
2017-07-06T20:59:15.786Z,1004.45
2017-07-06T21:00:15.769Z,1004.42
2017-07-06T21:01:15.754Z,1004.37
2017-07-06T21:02:15.738Z,1004.32
2017-07-06T21:03:15.722Z,1004.34
2017-07-06T21:04:15.707Z,1004.34
2017-07-06T21:05:15.691Z,1004.35
2017-07-06T21:06:15.677Z,1004.35
2017-07-06T21:07:15.659Z,1004.37
2017-07-06T21:08:15.644Z,1004.37
2017-07-06T21:09:15.629Z,1004.33
2017-07-06T21:10:15.615Z,1004.32
2017-07-06T21:11:15.596Z,1004.2
2017-07-06T21:12:15.581Z,1004.16